createdAt,value
2022-09-12T00:02:47.899Z,12.93
2022-09-12T00:05:42.575Z,13.26
2022-09-12T00:08:31.003Z,13.18
2022-09-12T00:11:19.733Z,13.22
2022-09-12T00:14:10.312Z,13.30
2022-09-12T00:16:59.618Z,12.95
2022-09-12T00:19:47.916Z,13.10
2022-09-12T00:22:38.626Z,12.76
2022-09-12T00:25:27.017Z,12.70
2022-09-12T00:28:17.733Z,13.03
2022-09-12T00:31:08.309Z,12.88
2022-09-12T00:34:00.787Z,12.87
2022-09-12T00:36:49.101Z,12.68
2022-09-12T00:39:39.167Z,12.93
2022-09-12T00:42:27.680Z,13.16
2022-09-12T00:45:24.316Z,13.62
2022-09-12T00:48:22.886Z,13.67
2022-09-12T00:51:11.988Z,13.03
2022-09-12T00:54:04.169Z,12.68
2022-09-12T00:56:57.241Z,12.62
2022-09-12T00:59:50.460Z,12.90
2022-09-12T01:02:39.151Z,12.70
2022-09-12T01:05:29.432Z,12.70
2022-09-12T01:08:18.841Z,12.36
2022-09-12T01:11:08.064Z,12.44
2022-09-12T01:13:57.964Z,12.44
2022-09-12T01:16:47.200Z,12.38
2022-09-12T01:20:10.672Z,12.42
2022-09-12T01:23:13.134Z,12.70
2022-09-12T01:26:22.577Z,13.04
2022-09-12T01:29:33.632Z,12.63
2022-09-12T01:32:32.730Z,12.45
2022-09-12T01:35:27.516Z,12.57
2022-09-12T01:38:25.827Z,12.42
2022-09-12T01:41:25.473Z,12.28
2022-09-12T01:44:24.980Z,12.56
2022-09-12T01:47:19.100Z,12.36
2022-09-12T01:50:15.190Z,12.39
2022-09-12T01:53:08.306Z,12.55
2022-09-12T01:56:01.699Z,12.63
2022-09-12T01:58:54.403Z,12.42
2022-09-12T02:01:55.115Z,12.26
2022-09-12T02:04:52.232Z,12.42
2022-09-12T02:07:46.968Z,12.33
2022-09-12T02:10:43.530Z,12.39
2022-09-12T02:13:37.086Z,12.40
2022-09-12T02:16:32.188Z,12.73
2022-09-12T02:19:24.016Z,12.86
2022-09-12T02:22:17.069Z,12.82
2022-09-12T02:25:10.494Z,12.32
2022-09-12T02:28:06.004Z,12.51
2022-09-12T02:31:02.696Z,12.44
2022-09-12T02:34:05.216Z,12.57
2022-09-12T02:37:02.530Z,12.54
2022-09-12T02:39:51.113Z,12.68
2022-09-12T02:42:41.088Z,12.54
2022-09-12T02:45:29.871Z,12.85
2022-09-12T02:48:23.201Z,12.86
2022-09-12T02:51:12.143Z,12.82
2022-09-12T02:54:00.902Z,12.72
2022-09-12T02:56:49.405Z,12.98
2022-09-12T02:59:39.135Z,12.75
2022-09-12T03:02:36.836Z,12.46
2022-09-12T03:05:30.568Z,12.45
2022-09-12T03:08:39.529Z,12.33
2022-09-12T03:11:51.660Z,12.58
2022-09-12T03:15:11.117Z,12.49
2022-09-12T03:18:09.551Z,12.28
2022-09-12T03:21:03.893Z,12.12
2022-09-12T03:24:03.384Z,12.30
2022-09-12T03:26:57.897Z,12.33
2022-09-12T03:29:49.015Z,12.17
2022-09-12T03:32:46.321Z,12.11
2022-09-12T03:35:34.733Z,12.28
2022-09-12T03:38:23.071Z,11.89
2022-09-12T03:41:11.442Z,11.86
2022-09-12T03:43:59.814Z,12.22
2022-09-12T03:46:48.355Z,11.81
2022-09-12T03:49:38.259Z,11.91
2022-09-12T03:52:26.671Z,11.93
2022-09-12T03:55:15.101Z,11.93
2022-09-12T03:58:03.393Z,11.93
2022-09-12T04:00:51.940Z,11.76
2022-09-12T04:03:41.292Z,11.76
2022-09-12T04:06:31.318Z,11.59
2022-09-12T04:09:20.514Z,11.52
2022-09-12T04:12:09.191Z,11.54
2022-09-12T04:14:57.535Z,11.48
2022-09-12T04:17:45.909Z,11.46
2022-09-12T04:20:34.209Z,11.40
2022-09-12T04:23:24.303Z,11.30
2022-09-12T04:26:13.877Z,11.28
2022-09-12T04:29:03.967Z,11.09
2022-09-12T04:31:52.556Z,11.36
2022-09-12T04:34:40.858Z,11.22
2022-09-12T04:37:29.204Z,11.33
2022-09-12T04:40:19.101Z,11.20
2022-09-12T04:43:11.178Z,11.48
2022-09-12T04:46:06.411Z,11.30
2022-09-12T04:48:57.037Z,11.33
2022-09-12T04:51:46.220Z,11.52
2022-09-12T04:54:34.552Z,11.49
2022-09-12T04:57:24.228Z,11.45
2022-09-12T05:00:15.022Z,11.38
2022-09-12T05:03:03.410Z,11.56
2022-09-12T05:05:56.266Z,11.25
2022-09-12T05:08:45.074Z,11.32
2022-09-12T05:12:03.633Z,11.29
2022-09-12T05:14:53.768Z,11.63
2022-09-12T05:17:51.277Z,11.35
2022-09-12T05:20:39.826Z,11.54
2022-09-12T05:23:28.824Z,11.56
2022-09-12T05:26:19.146Z,11.97
2022-09-12T05:29:13.374Z,12.00
2022-09-12T05:32:03.665Z,11.98
2022-09-12T05:34:58.263Z,11.89
2022-09-12T05:37:46.657Z,11.88
2022-09-12T05:40:41.203Z,12.24
2022-09-12T05:43:29.469Z,11.90
2022-09-12T05:46:26.414Z,11.82
2022-09-12T05:49:16.258Z,11.87
2022-09-12T05:52:10.750Z,11.84
2022-09-12T05:54:59.125Z,12.03
2022-09-12T05:57:54.151Z,12.35
2022-09-12T06:00:42.559Z,12.48
2022-09-12T06:03:40.883Z,12.33
2022-09-12T06:06:32.500Z,12.31
2022-09-12T06:09:20.921Z,12.25
2022-09-12T06:12:09.779Z,12.76
2022-09-12T06:14:58.261Z,12.49
2022-09-12T06:17:51.199Z,12.08
2022-09-12T06:20:39.821Z,12.76
2022-09-12T06:23:30.313Z,12.09
2022-09-12T06:26:21.771Z,12.62
2022-09-12T06:29:13.395Z,12.45
2022-09-12T06:32:01.904Z,12.21
2022-09-12T06:34:50.979Z,12.86
2022-09-12T06:37:39.228Z,12.40
2022-09-12T06:40:29.879Z,12.81
2022-09-12T06:43:18.254Z,13.00
2022-09-12T06:46:07.711Z,13.42
2022-09-12T06:48:57.216Z,12.92
2022-09-12T06:51:45.849Z,12.92
2022-09-12T06:54:34.195Z,13.05
2022-09-12T06:57:31.566Z,12.92
2022-09-12T07:00:20.181Z,13.32
2022-09-12T07:03:08.663Z,13.40
2022-09-12T07:06:07.558Z,13.14
2022-09-12T07:08:55.830Z,13.26
2022-09-12T07:11:44.935Z,13.05
2022-09-12T07:14:40.439Z,13.23
2022-09-12T07:17:28.734Z,13.67
2022-09-12T07:20:23.303Z,13.58
2022-09-12T07:23:11.797Z,13.83
2022-09-12T07:26:11.629Z,13.71
2022-09-12T07:29:19.117Z,13.68
2022-09-12T07:32:10.232Z,13.62
2022-09-12T07:35:05.161Z,13.68
2022-09-12T07:37:53.587Z,13.81
2022-09-12T07:40:48.544Z,13.51
2022-09-12T07:43:36.854Z,13.74
2022-09-12T07:46:26.689Z,13.61
2022-09-12T07:49:16.478Z,14.08
2022-09-12T07:52:04.993Z,13.70
2022-09-12T07:54:53.442Z,13.89
2022-09-12T07:57:41.962Z,14.23
2022-09-12T08:00:39.026Z,14.50
2022-09-12T08:03:27.383Z,13.47
2022-09-12T08:06:28.162Z,13.80
2022-09-12T08:09:17.588Z,13.74
2022-09-12T08:12:15.151Z,13.55
2022-09-12T08:15:03.806Z,13.83
2022-09-12T08:18:01.807Z,13.99
2022-09-12T08:20:50.146Z,13.77
2022-09-12T08:23:39.891Z,14.07
2022-09-12T08:26:37.295Z,13.71
2022-09-12T08:29:26.013Z,13.76
2022-09-12T08:32:23.363Z,14.14
2022-09-12T08:35:12.009Z,14.27
2022-09-12T08:38:09.379Z,14.19
2022-09-12T08:41:08.294Z,14.46
2022-09-12T08:44:09.372Z,14.05
2022-09-12T08:47:17.771Z,14.69
2022-09-12T08:50:15.386Z,14.79
2022-09-12T08:53:05.649Z,13.98
2022-09-12T08:56:08.684Z,14.50
2022-09-12T08:58:57.006Z,14.92
2022-09-12T09:02:01.007Z,14.89
2022-09-12T09:04:52.865Z,14.48
2022-09-12T09:08:08.955Z,14.97
2022-09-12T09:11:04.583Z,14.43
2022-09-12T09:14:26.600Z,14.77
2022-09-12T09:17:24.100Z,14.75
2022-09-12T09:20:22.448Z,14.88
2022-09-12T09:23:17.534Z,15.19
2022-09-12T09:26:09.613Z,15.08
2022-09-12T09:29:03.974Z,15.45
2022-09-12T09:31:56.010Z,15.40
2022-09-12T09:34:44.597Z,15.36
2022-09-12T09:37:45.332Z,15.17
2022-09-12T09:40:46.384Z,15.27
2022-09-12T09:43:34.998Z,15.69
2022-09-12T09:46:25.145Z,15.02
2022-09-12T09:49:23.944Z,15.51
2022-09-12T09:52:15.612Z,15.42
2022-09-12T09:55:05.242Z,16.03
2022-09-12T09:57:59.602Z,16.09
2022-09-12T10:00:48.004Z,16.13
2022-09-12T10:03:51.775Z,15.92
2022-09-12T10:06:40.951Z,15.27
2022-09-12T10:09:38.245Z,16.40
2022-09-12T10:12:29.334Z,16.17
2022-09-12T10:15:27.770Z,16.09
2022-09-12T10:18:34.842Z,16.25
2022-09-12T10:21:30.991Z,16.00
2022-09-12T10:24:24.334Z,16.56
2022-09-12T10:27:20.334Z,16.00
2022-09-12T10:30:18.984Z,15.87
2022-09-12T10:33:12.817Z,16.64
2022-09-12T10:36:01.803Z,16.31
2022-09-12T10:38:54.168Z,16.33
2022-09-12T10:41:42.934Z,16.50
2022-09-12T10:44:40.071Z,16.90
2022-09-12T10:47:32.788Z,16.34
2022-09-12T10:50:27.307Z,16.82
2022-09-12T10:53:20.399Z,17.41
2022-09-12T10:56:13.660Z,16.69
2022-09-12T10:59:24.323Z,16.80
2022-09-12T11:02:21.526Z,17.45
2022-09-12T11:05:20.669Z,17.18
2022-09-12T11:08:29.839Z,17.11
2022-09-12T11:11:38.359Z,16.95
2022-09-12T11:14:41.285Z,17.01
2022-09-12T11:17:42.285Z,17.02
2022-09-12T11:20:44.776Z,17.38
2022-09-12T11:24:15.081Z,17.39
2022-09-12T11:27:21.123Z,16.85
2022-09-12T11:30:13.110Z,17.08
2022-09-12T11:33:29.687Z,16.84
2022-09-12T11:36:33.625Z,17.35
2022-09-12T11:39:25.234Z,17.99
2022-09-12T11:42:20.779Z,17.87
2022-09-12T11:45:16.520Z,18.17
2022-09-12T11:48:12.916Z,17.94
2022-09-12T11:51:04.648Z,17.60
2022-09-12T11:54:05.889Z,17.61
2022-09-12T11:57:03.655Z,18.07
2022-09-12T11:59:59.255Z,18.39
2022-09-12T12:03:00.008Z,19.15
2022-09-12T12:05:53.636Z,19.23
2022-09-12T12:08:44.325Z,19.33
2022-09-12T12:11:36.870Z,19.59
2022-09-12T12:14:28.981Z,19.82
2022-09-12T12:17:21.039Z,19.83
2022-09-12T12:20:17.911Z,19.99
2022-09-12T12:23:06.300Z,19.69
2022-09-12T12:26:05.462Z,20.07
2022-09-12T12:29:00.411Z,21.35
2022-09-12T12:32:24.044Z,21.24
2022-09-12T12:35:40.908Z,20.57
2022-09-12T12:38:31.585Z,20.51
2022-09-12T12:41:45.785Z,20.35
2022-09-12T12:44:51.507Z,19.36
2022-09-12T12:47:46.892Z,19.85
2022-09-12T12:50:35.634Z,20.01
2022-09-12T12:53:30.274Z,19.94
2022-09-12T12:56:40.636Z,21.08
2022-09-12T12:59:29.700Z,20.82
2022-09-12T13:02:32.478Z,21.02
2022-09-12T13:05:24.659Z,20.59
2022-09-12T13:08:31.245Z,20.56
2022-09-12T13:11:31.723Z,20.24
2022-09-12T13:14:37.127Z,19.68
2022-09-12T13:17:35.833Z,20.26
2022-09-12T13:20:30.260Z,19.80
2022-09-12T13:23:23.627Z,20.10
2022-09-12T13:26:14.410Z,19.60
2022-09-12T13:29:16.255Z,20.01
2022-09-12T13:32:05.173Z,19.69
2022-09-12T13:35:07.952Z,20.16
2022-09-12T13:38:05.715Z,20.25
2022-09-12T13:41:11.998Z,20.15
2022-09-12T13:44:01.917Z,20.06
2022-09-12T13:47:00.079Z,20.05
2022-09-12T13:49:49.822Z,19.98
2022-09-12T13:52:49.488Z,19.54
2022-09-12T13:55:42.492Z,19.48
2022-09-12T13:58:33.301Z,19.97
2022-09-12T14:01:22.642Z,19.47
2022-09-12T14:04:36.897Z,20.05
2022-09-12T14:07:27.476Z,20.17
2022-09-12T14:10:20.105Z,20.47
2022-09-12T14:13:16.970Z,19.67
2022-09-12T14:16:09.974Z,20.22
2022-09-12T14:18:59.913Z,20.75
2022-09-12T14:21:50.095Z,20.17
2022-09-12T14:24:39.260Z,20.67
2022-09-12T14:27:45.838Z,19.92
2022-09-12T14:30:37.584Z,19.44
2022-09-12T14:33:26.012Z,19.58
2022-09-12T14:36:22.196Z,19.22
2022-09-12T14:39:21.912Z,20.20
2022-09-12T14:42:15.123Z,19.76
2022-09-12T14:45:06.811Z,19.79
2022-09-12T14:47:58.289Z,19.71
2022-09-12T14:50:50.565Z,19.89
2022-09-12T14:53:39.475Z,19.45
2022-09-12T14:56:41.387Z,19.42
2022-09-12T14:59:37.500Z,19.90
2022-09-12T15:02:28.955Z,20.27
2022-09-12T15:05:28.911Z,19.69
2022-09-12T15:08:17.417Z,19.25
2022-09-12T15:11:11.643Z,19.30
2022-09-12T15:14:00.017Z,19.13
2022-09-12T15:16:54.632Z,19.51
2022-09-12T15:19:42.946Z,19.83
2022-09-12T15:22:34.439Z,20.09
2022-09-12T15:25:22.786Z,20.00
2022-09-12T15:28:17.925Z,20.04
2022-09-12T15:31:11.672Z,21.08
2022-09-12T15:34:03.365Z,20.72
2022-09-12T15:36:51.830Z,20.99
2022-09-12T15:39:48.033Z,19.92
2022-09-12T15:42:36.522Z,19.28
2022-09-12T15:45:28.331Z,19.39
2022-09-12T15:48:16.713Z,20.25
2022-09-12T15:51:05.340Z,20.03
2022-09-12T15:53:53.755Z,20.05
2022-09-12T15:56:44.099Z,20.79
2022-09-12T15:59:41.513Z,20.04
2022-09-12T16:02:29.943Z,20.19
2022-09-12T16:05:27.837Z,19.90
2022-09-12T16:08:16.210Z,20.62
2022-09-12T16:11:19.983Z,20.10
2022-09-12T16:14:09.901Z,19.54
2022-09-12T16:16:58.464Z,19.06
2022-09-12T16:19:46.855Z,19.26
2022-09-12T16:22:35.382Z,19.20
2022-09-12T16:25:23.716Z,19.28
2022-09-12T16:28:12.333Z,19.17
2022-09-12T16:31:03.565Z,19.37
2022-09-12T16:34:01.167Z,19.04
2022-09-12T16:36:49.543Z,18.68
2022-09-12T16:39:49.000Z,18.90
2022-09-12T16:42:39.682Z,18.62
2022-09-12T16:45:31.484Z,18.84
2022-09-12T16:48:21.357Z,18.30
2022-09-12T16:51:09.865Z,18.01
2022-09-12T16:53:58.329Z,18.38
2022-09-12T16:56:46.749Z,18.32
2022-09-12T16:59:35.076Z,18.42
2022-09-12T17:02:23.463Z,18.24
2022-09-12T17:05:13.196Z,18.08
2022-09-12T17:08:01.615Z,18.01
2022-09-12T17:10:49.922Z,18.03
2022-09-12T17:14:06.170Z,18.10
2022-09-12T17:16:54.966Z,18.00
2022-09-12T17:19:52.926Z,17.76
2022-09-12T17:22:42.845Z,17.67
2022-09-12T17:25:32.620Z,17.73
2022-09-12T17:28:21.663Z,17.68
2022-09-12T17:31:13.826Z,17.70
2022-09-12T17:34:03.312Z,17.95
2022-09-12T17:36:57.709Z,17.92
2022-09-12T17:39:47.692Z,17.73
2022-09-12T17:42:42.768Z,17.48
2022-09-12T17:45:31.830Z,17.35
2022-09-12T17:48:26.380Z,17.50
2022-09-12T17:51:16.434Z,17.57
2022-09-12T17:54:12.932Z,17.35
2022-09-12T17:57:05.026Z,17.35
2022-09-12T17:59:53.915Z,17.31
2022-09-12T18:02:42.338Z,17.15
2022-09-12T18:05:31.160Z,17.02
2022-09-12T18:08:20.322Z,16.87
2022-09-12T18:11:15.099Z,16.81
2022-09-12T18:14:05.275Z,16.91
2022-09-12T18:17:00.478Z,17.08
2022-09-12T18:19:53.391Z,17.32
2022-09-12T18:22:42.083Z,17.29
2022-09-12T18:25:30.881Z,17.21
2022-09-12T18:28:20.202Z,17.20
2022-09-12T18:31:18.077Z,17.19
2022-09-12T18:34:12.653Z,17.25
2022-09-12T18:39:31.467Z,17.94
2022-09-12T18:42:19.774Z,18.06
2022-09-12T18:45:17.537Z,18.02
2022-09-12T18:48:06.302Z,18.08
2022-09-12T18:51:06.489Z,17.94
2022-09-12T18:53:57.157Z,17.74
2022-09-12T18:56:48.304Z,17.46
2022-09-12T18:59:36.784Z,17.55
2022-09-12T19:02:34.916Z,17.81
2022-09-12T19:05:23.632Z,17.81
2022-09-12T19:08:12.099Z,17.30
2022-09-12T19:11:00.841Z,16.43
2022-09-12T19:14:00.077Z,16.05
2022-09-12T19:16:48.564Z,15.80
2022-09-12T19:19:46.105Z,15.78
2022-09-12T19:22:34.749Z,15.99
2022-09-12T19:25:23.343Z,15.53
2022-09-12T19:28:11.725Z,15.23
2022-09-12T19:31:01.705Z,14.97
2022-09-12T19:33:50.818Z,15.15
2022-09-12T19:36:48.162Z,15.14
2022-09-12T19:39:36.617Z,14.83
2022-09-12T19:42:24.990Z,15.00
2022-09-12T19:45:13.398Z,15.16
2022-09-12T19:48:03.673Z,14.96
2022-09-12T19:50:52.081Z,14.86
2022-09-12T19:53:41.042Z,14.75
2022-09-12T19:56:35.449Z,14.52
2022-09-12T19:59:23.913Z,14.55
2022-09-12T20:02:18.456Z,14.98
2022-09-12T20:05:09.273Z,15.10
2022-09-12T20:07:57.826Z,14.76
2022-09-12T20:10:57.279Z,14.54
2022-09-12T20:13:46.438Z,14.84
2022-09-12T20:16:45.599Z,14.79
2022-09-12T20:19:34.348Z,14.85
2022-09-12T20:22:37.958Z,15.36
2022-09-12T20:25:28.219Z,14.66
2022-09-12T20:28:25.546Z,14.30
2022-09-12T20:31:15.921Z,14.13
2022-09-12T20:34:05.122Z,14.20
2022-09-12T20:36:59.608Z,14.27
2022-09-12T20:39:50.994Z,14.51
2022-09-12T20:42:39.773Z,14.57
2022-09-12T20:45:41.594Z,14.54
2022-09-12T20:48:32.126Z,14.80
2022-09-12T20:51:21.058Z,15.34
2022-09-12T20:54:15.367Z,15.21
2022-09-12T20:57:05.314Z,15.26
2022-09-12T20:59:59.996Z,15.45
2022-09-12T21:02:50.803Z,15.54
2022-09-12T21:05:39.342Z,15.46
2022-09-12T21:08:37.793Z,15.60
2022-09-12T21:11:26.352Z,15.49
2022-09-12T21:14:25.236Z,15.35
2022-09-12T21:17:13.656Z,15.06
2022-09-12T21:20:02.393Z,15.30
2022-09-12T21:22:50.769Z,14.52
2022-09-12T21:25:39.179Z,14.50
2022-09-12T21:28:27.788Z,14.23
2022-09-12T21:31:20.350Z,13.78
2022-09-12T21:34:08.797Z,13.58
2022-09-12T21:37:06.082Z,13.60
2022-09-12T21:39:54.460Z,13.51
2022-09-12T21:42:43.321Z,13.71
2022-09-12T21:45:31.779Z,13.86
2022-09-12T21:48:31.361Z,13.65
2022-09-12T21:51:19.886Z,13.46
2022-09-12T21:54:17.025Z,13.10
2022-09-12T21:57:05.512Z,13.05
2022-09-12T22:00:03.379Z,12.90
2022-09-12T22:02:56.578Z,12.86
2022-09-12T22:05:58.155Z,12.92
2022-09-12T22:08:46.569Z,13.13
2022-09-12T22:11:43.998Z,12.98
2022-09-12T22:14:32.399Z,13.25
2022-09-12T22:17:29.956Z,13.08
2022-09-12T22:20:18.607Z,13.34
2022-09-12T22:23:34.815Z,13.59
2022-09-12T22:26:23.172Z,13.50
2022-09-12T22:29:13.346Z,13.27
2022-09-12T22:32:02.263Z,13.58
2022-09-12T22:34:50.521Z,13.78
2022-09-12T22:37:38.920Z,13.33
2022-09-12T22:40:28.763Z,13.33
2022-09-12T22:43:17.245Z,13.61
2022-09-12T22:46:07.945Z,13.22
2022-09-12T22:48:56.771Z,13.35
2022-09-12T22:51:51.450Z,13.14
2022-09-12T22:54:39.810Z,13.22
2022-09-12T22:57:29.545Z,12.98
2022-09-12T23:00:28.118Z,13.20
2022-09-12T23:03:16.582Z,12.85
2022-09-12T23:06:13.823Z,12.80
2022-09-12T23:09:02.153Z,12.39
2022-09-12T23:11:59.591Z,12.89
2022-09-12T23:14:49.250Z,13.03
2022-09-12T23:17:46.522Z,12.99
2022-09-12T23:20:34.871Z,12.99
2022-09-12T23:23:32.817Z,12.52
2022-09-12T23:26:22.600Z,12.41
2022-09-12T23:29:19.971Z,12.39
2022-09-12T23:32:09.831Z,12.42
2022-09-12T23:35:07.394Z,12.60
2022-09-12T23:37:55.795Z,12.63
2022-09-12T23:40:53.241Z,12.48
2022-09-12T23:43:43.116Z,12.41
2022-09-12T23:46:31.421Z,12.35
2022-09-12T23:49:21.152Z,11.90
2022-09-12T23:52:09.541Z,12.26
2022-09-12T23:55:04.048Z,12.44
2022-09-12T23:57:52.433Z,12.48
